Time;durP1;ratioP1;P1;durP2;ratioP2;P2;SDS_P1;SDS_P2;PMS_P1;PMS_P2;Temp;Humidity;BMP_temperature;BMP_pressure;BME280_temperature;BME280_humidity;BME280_pressure;Samples;Min_cycle;Max_cycle;Signal;HPM_P1;HPM_P2
2022/01/22 00:00:48;;;;;;;17.23;6.93;;;5.40;99.90;;;;;;6208236;23;20367;-88
2022/01/22 00:03:14;;;;;;;22.70;7.57;;;5.40;99.90;;;;;;6183805;23;20013;-88
2022/01/22 00:05:40;;;;;;;17.47;7.57;;;5.40;99.90;;;;;;6183925;23;20005;-88
2022/01/22 00:08:07;;;;;;;22.13;7.17;;;5.40;99.90;;;;;;6183324;23;20009;-88
2022/01/22 00:10:34;;;;;;;17.57;6.90;;;5.40;99.90;;;;;;6183748;23;20017;-88
2022/01/22 00:15:26;;;;;;;19.73;6.80;;;5.40;99.90;;;;;;6208923;23;20009;-88
2022/01/22 00:17:53;;;;;;;20.93;7.67;;;5.30;99.90;;;;;;6183114;23;20569;-88
2022/01/22 00:20:21;;;;;;;23.17;7.40;;;5.40;99.90;;;;;;6183668;23;20005;-88
2022/01/22 00:22:47;;;;;;;21.10;7.63;;;5.40;99.90;;;;;;6208823;23;20036;-88
2022/01/22 00:25:15;;;;;;;20.93;8.47;;;5.30;99.90;;;;;;6208878;23;20465;-88
2022/01/22 00:27:42;;;;;;;30.60;9.57;;;5.30;99.90;;;;;;6183049;23;20503;-87
2022/01/22 00:30:11;;;;;;;24.37;7.50;;;5.30;99.90;;;;;;6158922;23;20005;-87
2022/01/22 00:32:37;;;;;;;23.73;6.90;;;5.30;99.90;;;;;;6158890;23;20013;-87
2022/01/22 00:35:05;;;;;;;19.73;7.67;;;5.30;99.90;;;;;;6183825;23;20399;-87
2022/01/22 00:37:31;;;;;;;18.83;7.47;;;5.40;99.90;;;;;;6208173;23;20868;-87
2022/01/22 00:39:57;;;;;;;19.00;7.27;;;5.40;99.90;;;;;;6183420;23;20020;-87
2022/01/22 00:42:23;;;;;;;18.73;8.03;;;5.40;99.90;;;;;;6183472;23;20013;-88
2022/01/22 00:44:51;;;;;;;21.90;8.03;;;5.30;99.90;;;;;;6183454;23;20554;-88
2022/01/22 00:47:20;;;;;;;25.30;7.90;;;5.40;99.90;;;;;;6183437;23;20060;-88
2022/01/22 00:49:47;;;;;;;24.23;7.53;;;5.30;99.90;;;;;;6182693;23;20005;-88
2022/01/22 00:52:13;;;;;;;19.00;8.20;;;5.40;99.90;;;;;;6183708;23;20023;-88
2022/01/22 00:54:39;;;;;;;19.17;7.80;;;5.40;99.90;;;;;;6183484;23;20436;-88
2022/01/22 00:57:05;;;;;;;18.53;7.77;;;5.30;99.90;;;;;;6158711;23;20015;-88
2022/01/22 00:59:31;;;;;;;22.67;8.00;;;5.20;99.90;;;;;;6182760;23;20016;-88
2022/01/22 01:01:57;;;;;;;21.27;9.37;;;5.20;99.90;;;;;;6208750;23;20013;-88
2022/01/22 01:04:23;;;;;;;18.87;8.77;;;5.30;99.90;;;;;;6183286;23;20099;-88
2022/01/22 01:06:49;;;;;;;16.57;8.33;;;5.20;99.90;;;;;;6183491;23;20052;-88
2022/01/22 01:09:17;;;;;;;22.83;9.87;;;5.20;99.90;;;;;;6182817;23;19997;-88
2022/01/22 01:11:49;;;;;;;18.15;8.52;;;5.20;99.90;;;;;;6182817;23;20352;-87
2022/01/22 01:14:22;;;;;;;20.83;8.90;;;5.20;99.90;;;;;;6183650;23;20013;-88
2022/01/22 01:34:10;;;;;;;19.27;8.13;;;5.20;99.90;;;;;;6183169;23;20087;-88
2022/01/22 01:36:13;;;;;;;20.77;8.73;;;5.20;99.90;;;;;;6175010;23;20352;-88
2022/01/22 01:38:43;;;;;;;17.92;8.90;;;5.20;99.90;;;;;;6207388;23;20013;-88
2022/01/22 01:41:19;;;;;;;20.93;8.03;;;5.20;99.90;;;;;;6183159;23;20084;-88
2022/01/22 01:43:45;;;;;;;21.03;9.13;;;5.30;99.90;;;;;;6183058;23;20432;-88
2022/01/22 01:46:33;;;;;;;25.97;8.90;;;5.20;99.90;;;;;;6183176;23;20080;-88
2022/01/22 01:48:59;;;;;;;18.83;7.90;;;5.20;99.90;;;;;;6182606;23;20354;-88
2022/01/22 01:51:29;;;;;;;19.37;8.53;;;5.20;99.90;;;;;;6183415;23;20317;-88
2022/01/22 01:59:11;;;;;;;21.07;8.00;;;5.30;99.90;;;;;;6182180;23;20013;-88
2022/01/22 02:01:37;;;;;;;20.37;9.03;;;5.30;99.90;;;;;;6182654;23;20009;-87
2022/01/22 02:04:05;;;;;;;17.00;8.60;;;5.30;99.90;;;;;;6158109;23;20005;-87
2022/01/22 02:06:31;;;;;;;22.33;8.70;;;5.30;99.90;;;;;;6182889;23;20016;-87
2022/01/22 02:08:57;;;;;;;18.37;9.00;;;5.20;99.90;;;;;;6182498;23;20340;-87
2022/01/22 02:11:27;;;;;;;23.13;9.07;;;5.20;99.90;;;;;;6207596;23;20009;-88
2022/01/22 02:23:31;;;;;;;18.65;8.50;;;5.20;99.90;;;;;;6182953;23;20067;-87
2022/01/22 02:25:34;;;;;;;21.73;9.57;;;5.30;99.90;;;;;;6184892;23;20100;-87
2022/01/22 02:28:01;;;;;;;20.80;9.50;;;5.30;99.90;;;;;;6209224;23;20588;-87
2022/01/22 02:30:33;;;;;;;24.37;9.60;;;5.30;99.90;;;;;;6185279;23;20459;-87
2022/01/22 02:33:43;;;;;;;15.53;8.93;;;5.20;99.90;;;;;;6186446;23;20020;-87
2022/01/22 02:39:37;;;;;;;19.80;9.87;;;5.30;99.90;;;;;;6209084;23;20025;-87
2022/01/22 02:41:41;;;;;;;20.50;9.57;;;5.30;99.90;;;;;;6176353;23;20463;-87
2022/01/22 02:44:11;;;;;;;21.43;10.37;;;5.20;99.90;;;;;;6184756;23;20009;-87
2022/01/22 02:46:41;;;;;;;22.40;10.37;;;5.20;99.90;;;;;;6184641;23;20009;-87
2022/01/22 02:49:07;;;;;;;25.50;11.33;;;5.20;99.90;;;;;;6209643;23;20087;-87
2022/01/22 02:51:34;;;;;;;23.37;11.10;;;5.20;99.90;;;;;;6160114;23;20465;-87
2022/01/22 02:54:01;;;;;;;22.93;10.60;;;5.20;99.90;;;;;;6160075;23;20016;-87
2022/01/22 02:56:27;;;;;;;24.97;11.53;;;5.20;99.90;;;;;;6160206;23;20084;-87
2022/01/22 02:58:54;;;;;;;24.93;11.37;;;5.20;99.90;;;;;;6209013;23;20009;-88
2022/01/22 03:01:23;;;;;;;18.23;11.40;;;5.20;99.90;;;;;;6159806;23;20020;-87
2022/01/22 03:03:49;;;;;;;24.47;12.77;;;5.20;99.90;;;;;;6184621;23;20009;-87
2022/01/22 03:06:14;;;;;;;25.73;12.23;;;5.20;99.90;;;;;;6159824;23;20116;-87
2022/01/22 03:08:42;;;;;;;26.20;13.17;;;5.20;99.90;;;;;;6183759;23;20061;-88
2022/01/22 03:11:18;;;;;;;29.27;14.73;;;5.20;99.90;;;;;;6209708;23;20039;-87
2022/01/22 03:18:51;;;;;;;28.00;14.87;;;5.20;99.90;;;;;;6186500;23;20337;-87
2022/01/22 03:29:19;;;;;;;40.53;18.43;;;5.20;99.90;;;;;;6183438;23;20432;-87
2022/01/22 03:31:45;;;;;;;;;;;5.20;99.90;;;;;;6159977;23;20013;-87
2022/01/22 03:34:11;;;;;;;37.23;15.67;;;5.20;99.90;;;;;;6159566;23;19987;-87
2022/01/22 03:36:38;;;;;;;45.70;19.27;;;5.20;99.90;;;;;;6184581;23;20008;-87
2022/01/22 03:39:08;;;;;;;54.90;19.63;;;5.20;99.90;;;;;;6208647;23;20009;-88
2022/01/22 03:41:35;;;;;;;42.10;18.20;;;5.20;99.90;;;;;;6185472;23;20009;-87
2022/01/22 03:44:04;;;;;;;49.67;19.23;;;5.30;99.90;;;;;;6210411;23;20001;-87
2022/01/22 03:46:30;;;;;;;;;;;5.20;99.90;;;;;;6211093;23;20135;-88
2022/01/22 03:48:57;;;;;;;48.87;19.80;;;5.20;99.90;;;;;;6159848;23;19927;-87
2022/01/22 03:51:23;;;;;;;43.37;20.23;;;5.20;99.90;;;;;;6160238;23;20321;-87
2022/01/22 03:53:49;;;;;;;51.80;20.77;;;5.20;99.90;;;;;;6160374;23;20009;-87
2022/01/22 03:56:16;;;;;;;48.23;22.33;;;5.20;99.90;;;;;;6159744;23;20371;-87
2022/01/22 03:58:48;;;;;;;52.23;22.67;;;5.20;99.90;;;;;;6183886;23;20013;-87
2022/01/22 04:02:04;;;;;;;52.22;20.88;;;5.20;99.90;;;;;;6183760;23;20487;-87
2022/01/22 04:04:42;;;;;;;38.23;18.73;;;5.30;99.90;;;;;;6183964;23;20084;-88
2022/01/22 04:09:56;;;;;;;48.57;20.20;;;5.40;99.90;;;;;;6183600;23;20013;-88
2022/01/22 04:12:31;;;;;;;50.00;20.60;;;5.30;99.90;;;;;;6159249;23;20020;-87
2022/01/22 04:15:01;;;;;;;35.90;18.77;;;5.40;99.90;;;;;;6159113;23;20009;-87
2022/01/22 04:25:26;;;;;;;38.97;19.13;;;5.40;99.90;;;;;;6183767;23;20009;-87
2022/01/22 04:27:53;;;;;;;39.67;18.73;;;5.40;99.90;;;;;;6183037;23;20012;-88
2022/01/22 04:30:21;;;;;;;39.93;19.30;;;5.40;99.90;;;;;;6183618;23;20421;-87
2022/01/22 04:32:47;;;;;;;43.73;20.23;;;5.40;99.90;;;;;;6183727;23;20031;-88
2022/01/22 04:35:13;;;;;;;49.13;21.87;;;5.40;99.90;;;;;;6158800;23;20460;-88
2022/01/22 04:37:39;;;;;;;49.50;20.73;;;5.40;99.90;;;;;;6158525;23;20603;-87
2022/01/22 04:40:07;;;;;;;48.43;20.57;;;5.40;99.90;;;;;;6183472;23;20335;-87
2022/01/22 04:42:36;;;;;;;50.20;21.53;;;5.40;99.90;;;;;;6183606;23;20040;-87
2022/01/22 04:45:14;;;;;;;37.00;18.63;;;5.40;99.90;;;;;;6183596;23;20037;-87
2022/01/22 04:47:52;;;;;;;37.97;18.63;;;5.40;99.90;;;;;;6182548;23;20012;-88
2022/01/22 04:55:41;;;;;;;34.53;18.37;;;5.40;99.90;;;;;;6208555;23;20438;-88
2022/01/22 04:58:08;;;;;;;34.80;18.70;;;5.40;99.90;;;;;;6182812;23;20436;-87
2022/01/22 05:00:37;;;;;;;30.33;17.50;;;5.40;99.90;;;;;;6158529;23;20008;-88
2022/01/22 05:03:10;;;;;;;31.60;17.87;;;5.40;99.90;;;;;;6195344;23;20051;-87
2022/01/22 05:05:54;;;;;;;30.37;18.90;;;5.40;99.90;;;;;;6183711;23;20020;-88
2022/01/22 05:08:26;;;;;;;37.27;18.43;;;5.50;99.90;;;;;;6159209;23;20079;-87
2022/01/22 05:11:06;;;;;;;35.50;18.55;;;5.40;99.90;;;;;;6161597;23;20060;-87
2022/01/22 05:13:33;;;;;;;34.60;18.93;;;5.40;99.90;;;;;;6160962;23;20013;-88
2022/01/22 05:16:00;;;;;;;35.97;18.63;;;5.50;99.90;;;;;;6211063;23;20009;-88
2022/01/22 05:18:27;;;;;;;41.53;19.13;;;5.50;99.90;;;;;;6160361;23;20009;-88
2022/01/22 05:21:04;;;;;;;36.57;19.63;;;5.50;99.90;;;;;;6158614;23;20098;-87
2022/01/22 05:23:32;;;;;;;42.97;20.73;;;5.40;99.90;;;;;;6208353;23;20005;-87
2022/01/22 05:26:02;;;;;;;44.73;20.50;;;5.50;99.90;;;;;;6183107;23;20009;-87
2022/01/22 05:37:23;;;;;;;39.43;21.93;;;5.40;99.90;;;;;;6209045;23;20044;-84
2022/01/22 05:39:49;;;;;;;42.93;22.60;;;5.50;99.90;;;;;;6183178;23;20008;-82
2022/01/22 05:42:15;;;;;;;46.23;23.97;;;5.50;99.90;;;;;;6185388;23;20371;-83
2022/01/22 05:44:41;;;;;;;42.60;23.93;;;5.50;99.90;;;;;;6211055;23;20339;-83
2022/01/22 05:47:07;;;;;;;46.37;23.37;;;5.50;99.90;;;;;;6193108;23;20080;-82
2022/01/22 05:49:38;;;;;;;43.33;23.07;;;5.50;99.90;;;;;;6184641;23;20076;-82
2022/01/22 05:52:06;;;;;;;45.80;23.73;;;5.60;99.90;;;;;;6210563;23;20005;-82
2022/01/22 06:00:40;;;;;;;42.77;21.53;;;5.70;99.90;;;;;;6185889;23;20008;-82
2022/01/22 06:03:20;;;;;;;39.77;22.50;;;5.60;99.90;;;;;;6185891;23;20085;-82
2022/01/22 06:05:47;;;;;;;50.43;22.67;;;5.60;99.90;;;;;;6186627;23;20024;-83
2022/01/22 06:08:16;;;;;;;41.60;22.23;;;5.60;99.90;;;;;;6210869;23;20008;-82
2022/01/22 06:10:45;;;;;;;42.42;21.92;;;5.70;99.90;;;;;;6186564;23;20096;-82
2022/01/22 06:13:18;;;;;;;;;;;5.60;99.90;;;;;;6212866;23;20017;-83
2022/01/22 06:15:44;;;;;;;41.00;22.13;;;5.60;99.90;;;;;;6212119;23;19904;-83
2022/01/22 06:18:25;;;;;;;41.40;21.23;;;5.60;99.90;;;;;;6211910;23;20013;-83
2022/01/22 06:20:52;;;;;;;45.53;21.90;;;5.60;99.90;;;;;;6215414;23;20024;-84
2022/01/22 06:23:18;;;;;;;37.97;22.50;;;5.60;99.90;;;;;;6218130;23;20005;-84
2022/01/22 06:25:44;;;;;;;45.33;23.47;;;5.60;99.90;;;;;;6218920;23;20016;-84
2022/01/22 06:28:10;;;;;;;47.57;22.43;;;5.60;99.90;;;;;;6198655;23;20005;-84
2022/01/22 06:30:49;;;;;;;51.67;25.73;;;5.60;99.90;;;;;;6199778;23;20013;-83
2022/01/22 06:33:15;;;;;;;48.97;24.10;;;5.60;99.90;;;;;;6221141;23;20020;-83
2022/01/22 06:35:41;;;;;;;53.27;24.53;;;5.70;99.90;;;;;;6194651;23;20016;-83
2022/01/22 06:38:08;;;;;;;46.63;24.63;;;5.70;99.90;;;;;;6217769;23;20005;-85
2022/01/22 06:44:03;;;;;;;53.77;23.80;;;5.70;99.90;;;;;;6194312;23;20009;-83
2022/01/22 06:46:40;;;;;;;45.17;23.57;;;5.70;99.90;;;;;;6193436;23;20012;-85
2022/01/22 06:49:26;;;;;;;48.70;22.83;;;5.60;99.90;;;;;;6214358;23;20532;-83
2022/01/22 06:52:21;;;;;;;57.00;24.03;;;5.70;99.90;;;;;;6133366;23;20019;-84
2022/01/22 06:54:50;;;;;;;50.10;23.40;;;5.70;99.90;;;;;;6218403;23;20079;-83
2022/01/22 06:57:16;;;;;;;48.07;23.13;;;5.60;99.90;;;;;;6218622;23;20028;-84
2022/01/22 06:59:42;;;;;;;54.70;24.10;;;5.70;99.90;;;;;;6217666;23;20017;-83
2022/01/22 07:02:09;;;;;;;58.07;26.23;;;5.70;99.90;;;;;;6193712;23;20009;-83
2022/01/22 07:04:39;;;;;;;56.10;24.47;;;5.70;99.90;;;;;;6192736;23;20012;-84
2022/01/22 07:07:14;;;;;;;55.07;24.77;;;5.70;99.90;;;;;;6219030;23;20056;-85
2022/01/22 07:09:42;;;;;;;55.83;22.37;;;5.70;99.90;;;;;;6193023;23;20009;-83
2022/01/22 07:12:10;;;;;;;48.63;22.73;;;5.70;99.90;;;;;;6197180;23;20466;-83
2022/01/22 07:14:36;;;;;;;46.53;21.77;;;5.70;99.90;;;;;;6176422;23;20009;-84
2022/01/22 07:17:02;;;;;;;42.37;20.97;;;5.70;99.90;;;;;;6201084;23;20019;-85
2022/01/22 07:19:41;;;;;;;40.67;20.40;;;5.70;99.90;;;;;;6198844;23;20009;-84
2022/01/22 07:22:46;;;;;;;37.40;19.27;;;5.70;99.90;;;;;;6200984;23;20290;-83
2022/01/22 07:25:31;;;;;;;39.50;19.50;;;5.70;99.90;;;;;;6220396;23;20071;-84
2022/01/22 07:28:02;;;;;;;45.87;23.00;;;5.70;99.90;;;;;;6195581;23;20238;-84
2022/01/22 07:30:30;;;;;;;46.77;22.83;;;5.60;99.90;;;;;;6170239;23;20032;-85
2022/01/22 07:32:56;;;;;;;39.57;20.87;;;5.70;99.90;;;;;;6145682;23;20002;-86
2022/01/22 07:35:22;;;;;;;36.63;20.10;;;5.70;99.90;;;;;;6172380;23;20016;-84
2022/01/22 07:38:02;;;;;;;38.17;20.20;;;5.80;99.90;;;;;;6170133;23;20009;-84
2022/01/22 07:40:29;;;;;;;42.60;21.10;;;5.70;99.90;;;;;;6193517;23;20009;-84
2022/01/22 07:43:01;;;;;;;39.80;18.80;;;5.70;99.90;;;;;;6168041;23;20383;-83
2022/01/22 07:45:45;;;;;;;36.40;18.97;;;5.70;99.90;;;;;;6194507;23;20104;-83
2022/01/22 07:48:18;;;;;;;35.90;19.57;;;5.70;99.90;;;;;;6144197;23;20055;-83
2022/01/22 07:51:03;;;;;;;36.73;19.20;;;5.70;99.90;;;;;;6171799;23;20023;-84
2022/01/22 07:53:29;;;;;;;36.63;21.07;;;5.70;99.90;;;;;;6192595;23;20020;-84
2022/01/22 07:55:57;;;;;;;41.37;21.83;;;5.80;99.90;;;;;;6168088;23;20008;-84
2022/01/22 07:58:23;;;;;;;40.27;22.03;;;5.70;99.90;;;;;;6192045;23;20008;-84
2022/01/22 08:00:49;;;;;;;34.70;18.80;;;5.80;99.90;;;;;;6143447;23;20017;-84
2022/01/22 08:03:16;;;;;;;38.37;20.03;;;5.70;99.90;;;;;;6167612;23;20012;-83
2022/01/22 08:06:04;;;;;;;44.58;21.75;;;5.70;99.90;;;;;;6132262;23;20001;-85
2022/01/22 08:09:02;;;;;;;40.90;22.43;;;5.80;99.90;;;;;;6174783;23;20013;-86
2022/01/22 08:11:47;;;;;;;38.27;20.73;;;5.70;99.90;;;;;;6188251;23;20020;-83
2022/01/22 08:14:13;;;;;;;36.27;20.10;;;5.70;99.90;;;;;;6186582;23;20013;-85
2022/01/22 08:16:39;;;;;;;38.13;21.07;;;5.70;99.90;;;;;;6138114;23;20059;-83
2022/01/22 08:19:06;;;;;;;38.97;20.47;;;5.70;99.90;;;;;;6187516;23;20063;-85
2022/01/22 08:21:32;;;;;;;39.57;21.70;;;5.80;99.90;;;;;;6188642;23;20016;-87
2022/01/22 08:24:19;;;;;;;36.87;20.80;;;5.70;99.90;;;;;;6192851;23;20012;-87
2022/01/22 08:26:54;;;;;;;38.00;20.30;;;5.80;99.90;;;;;;6166479;23;20005;-86
2022/01/22 08:29:23;;;;;;;35.30;20.20;;;5.80;99.90;;;;;;6205014;23;20017;-88
2022/01/22 08:32:04;;;;;;;38.67;21.07;;;5.80;99.90;;;;;;6190591;23;20009;-86
2022/01/22 08:37:15;;;;;;;39.47;20.40;;;5.90;99.90;;;;;;6191021;23;20017;-87
2022/01/22 08:39:43;;;;;;;41.90;22.07;;;5.90;99.90;;;;;;6215566;23;20043;-87
2022/01/22 08:42:09;;;;;;;41.70;22.37;;;6.00;99.90;;;;;;6194896;23;20015;-84
2022/01/22 08:44:35;;;;;;;41.37;24.73;;;5.90;99.90;;;;;;6221554;23;20016;-83
2022/01/22 08:47:05;;;;;;;35.75;20.50;;;6.00;99.90;;;;;;6196042;23;20009;-84
2022/01/22 08:49:31;;;;;;;39.70;21.67;;;6.00;99.90;;;;;;6221317;23;20000;-83
2022/01/22 08:52:09;;;;;;;37.07;21.20;;;6.00;99.90;;;;;;6196885;23;20325;-84
2022/01/22 08:54:36;;;;;;;42.10;21.27;;;6.00;99.90;;;;;;6198374;23;20025;-83
2022/01/22 08:57:04;;;;;;;35.33;20.50;;;6.00;99.90;;;;;;6198195;23;20013;-85
2022/01/22 08:59:30;;;;;;;42.57;21.37;;;6.00;99.90;;;;;;6222207;23;20013;-85
2022/01/22 09:02:02;;;;;;;42.40;21.87;;;6.00;99.90;;;;;;6198520;23;20009;-85
2022/01/22 09:04:48;;;;;;;37.57;21.50;;;6.00;99.90;;;;;;6219493;23;20009;-85
2022/01/22 09:07:25;;;;;;;37.17;21.77;;;5.90;99.90;;;;;;6205337;23;20013;-85
2022/01/22 09:10:26;;;;;;;44.30;23.57;;;5.90;99.90;;;;;;6115120;23;20010;-84
2022/01/22 09:13:11;;;;;;;41.40;22.63;;;5.90;99.90;;;;;;6192507;23;20148;-82
2022/01/22 09:15:57;;;;;;;39.60;22.47;;;5.90;99.90;;;;;;6186458;23;20074;-82
2022/01/22 09:18:23;;;;;;;39.83;23.30;;;6.00;99.90;;;;;;6209806;23;20012;-84
2022/01/22 09:23:17;;;;;;;39.53;23.13;;;6.00;99.90;;;;;;6184893;23;20385;-82
2022/01/22 09:25:44;;;;;;;41.90;23.40;;;6.00;99.90;;;;;;6209773;23;20068;-82
2022/01/22 09:28:12;;;;;;;42.43;23.27;;;6.00;99.90;;;;;;6159206;23;20036;-82
2022/01/22 09:30:42;;;;;;;37.50;21.67;;;6.00;99.90;;;;;;6209105;23;20016;-83
2022/01/22 09:33:08;;;;;;;43.50;22.67;;;6.10;99.90;;;;;;6186382;23;20428;-82
2022/01/22 09:35:52;;;;;;;39.43;22.50;;;6.10;99.90;;;;;;6184972;23;20058;-82
2022/01/22 09:38:37;;;;;;;37.67;21.87;;;6.00;99.90;;;;;;6205078;23;20147;-85
2022/01/22 09:41:24;;;;;;;42.83;22.23;;;6.00;99.90;;;;;;6184980;23;20510;-85
2022/01/22 09:44:09;;;;;;;38.27;21.97;;;6.10;99.90;;;;;;6204806;23;20062;-87
2022/01/22 09:46:45;;;;;;;44.30;23.23;;;6.10;99.90;;;;;;6195735;23;20049;-83
2022/01/22 09:49:34;;;;;;;42.23;24.40;;;6.10;99.90;;;;;;6173890;23;20080;-83
2022/01/22 09:52:20;;;;;;;43.60;24.03;;;6.10;99.90;;;;;;6208674;23;20013;-85
2022/01/22 09:55:05;;;;;;;41.43;22.77;;;6.10;99.90;;;;;;6183554;23;20009;-87
2022/01/22 09:57:50;;;;;;;37.00;21.07;;;6.10;99.90;;;;;;6194132;23;20021;-84
2022/01/22 10:00:48;;;;;;;41.72;21.60;;;6.10;99.90;;;;;;6169928;23;20060;-84
2022/01/22 10:03:27;;;;;;;40.03;22.08;;;6.20;99.90;;;;;;6206334;23;20009;-84
2022/01/22 10:06:18;;;;;;;45.07;23.77;;;6.20;99.90;;;;;;6183650;23;20380;-83
2022/01/22 10:09:04;;;;;;;40.40;22.20;;;6.20;99.90;;;;;;6206516;23;20036;-87
2022/01/22 10:11:44;;;;;;;45.07;23.60;;;6.30;99.90;;;;;;6183384;23;20399;-84
2022/01/22 10:14:10;;;;;;;41.50;21.97;;;6.30;99.90;;;;;;6186538;23;20013;-86
2022/01/22 10:16:38;;;;;;;43.43;22.60;;;6.30;99.90;;;;;;6185481;23;20005;-86
2022/01/22 10:19:24;;;;;;;46.83;23.17;;;6.40;99.90;;;;;;6183220;23;20324;-84
2022/01/22 10:22:01;;;;;;;44.73;22.87;;;6.40;99.90;;;;;;6208523;23;20012;-85
2022/01/22 10:24:38;;;;;;;61.93;26.90;;;6.40;99.90;;;;;;6209160;23;20152;-86
2022/01/22 10:27:30;;;;;;;67.30;28.87;;;6.40;99.90;;;;;;6184055;23;20031;-87
2022/01/22 10:30:03;;;;;;;53.33;24.37;;;6.40;99.90;;;;;;6159191;23;20013;-84
2022/01/22 10:32:43;;;;;;;55.37;24.53;;;6.50;99.90;;;;;;6184124;23;20020;-86
2022/01/22 10:35:29;;;;;;;75.13;27.50;;;6.50;99.90;;;;;;6174939;23;20016;-83
2022/01/22 10:38:17;;;;;;;55.50;25.63;;;6.60;99.90;;;;;;6184997;23;20024;-86
2022/01/22 10:40:44;;;;;;;71.70;28.00;;;6.50;99.90;;;;;;6183357;23;20020;-86
2022/01/22 10:43:25;;;;;;;57.17;26.47;;;6.50;99.90;;;;;;6183719;23;20005;-84
2022/01/22 10:46:20;;;;;;;60.97;27.00;;;6.50;99.90;;;;;;6185539;23;20019;-84
2022/01/22 10:49:04;;;;;;;53.60;24.43;;;6.50;99.90;;;;;;6185069;23;20009;-85
2022/01/22 10:51:42;;;;;;;45.37;20.97;;;6.60;99.90;;;;;;6186002;23;20019;-86
2022/01/22 10:54:10;;;;;;;42.87;20.97;;;6.60;99.90;;;;;;6210967;23;20035;-84
2022/01/22 10:56:39;;;;;;;40.93;20.67;;;6.60;99.90;;;;;;6211767;23;20009;-84
2022/01/22 10:59:10;;;;;;;36.65;19.00;;;6.50;99.90;;;;;;6185207;23;20032;-86
2022/01/22 11:01:59;;;;;;;38.67;20.47;;;6.50;99.90;;;;;;6211266;23;20013;-84
2022/01/22 11:04:29;;;;;;;29.00;16.07;;;6.60;99.90;;;;;;6210894;23;20005;-84
2022/01/22 11:07:03;;;;;;;31.57;14.63;;;6.60;99.90;;;;;;6186971;23;20031;-84
2022/01/22 11:09:30;;;;;;;27.27;13.47;;;6.60;99.90;;;;;;6160493;23;20009;-87
2022/01/22 11:12:00;;;;;;;26.27;13.47;;;6.60;99.90;;;;;;6185938;23;20013;-85
2022/01/22 11:14:32;;;;;;;26.10;14.43;;;6.70;99.90;;;;;;6186438;23;20039;-85
2022/01/22 11:16:58;;;;;;;26.73;13.43;;;6.80;99.90;;;;;;6212348;23;20015;-86
2022/01/22 11:19:33;;;;;;;23.27;11.80;;;6.70;99.90;;;;;;6210508;23;20383;-83
2022/01/22 11:22:11;;;;;;;22.47;11.47;;;6.70;99.90;;;;;;6186293;23;20470;-84
2022/01/22 11:24:40;;;;;;;22.05;11.27;;;6.70;99.90;;;;;;6188050;23;20462;-87
2022/01/22 11:27:07;;;;;;;25.27;11.43;;;6.70;99.90;;;;;;6186384;23;20032;-87
2022/01/22 11:29:52;;;;;;;24.07;12.77;;;6.60;99.90;;;;;;6212388;23;20009;-82
2022/01/22 11:32:26;;;;;;;24.27;12.23;;;6.70;99.90;;;;;;6188246;23;20022;-82
2022/01/22 11:34:57;;;;;;;28.10;12.43;;;6.70;99.90;;;;;;6189010;23;20017;-82
2022/01/22 11:37:43;;;;;;;26.30;12.93;;;6.70;99.90;;;;;;6188790;23;20040;-83
2022/01/22 11:40:24;;;;;;;30.10;13.73;;;6.70;99.90;;;;;;6190072;23;20353;-85
2022/01/22 11:43:00;;;;;;;32.77;13.80;;;6.70;99.90;;;;;;6191249;23;20428;-83
2022/01/22 11:45:29;;;;;;;33.43;14.60;;;6.70;99.90;;;;;;6188930;23;19997;-85
2022/01/22 11:48:24;;;;;;;33.80;14.68;;;6.80;99.90;;;;;;6212769;23;20435;-82
2022/01/22 11:51:14;;;;;;;28.17;14.23;;;6.80;99.90;;;;;;6180284;23;20009;-83
2022/01/22 11:53:41;;;;;;;29.47;13.90;;;6.80;99.90;;;;;;6218056;23;20011;-83
2022/01/22 11:56:10;;;;;;;35.87;17.90;;;6.70;99.90;;;;;;6193108;23;20052;-85
2022/01/22 11:59:02;;;;;;;29.73;15.00;;;6.70;99.90;;;;;;6194645;23;20001;-85
2022/01/22 12:01:56;;;;;;;29.63;14.60;;;6.70;99.90;;;;;;6193365;23;20009;-83
2022/01/22 12:04:24;;;;;;;27.13;14.33;;;6.80;99.90;;;;;;6168686;23;20009;-84
2022/01/22 12:07:02;;;;;;;28.23;13.87;;;6.80;99.90;;;;;;6167970;23;20428;-83
2022/01/22 12:09:31;;;;;;;28.90;13.67;;;6.80;99.90;;;;;;6193788;23;20253;-83
2022/01/22 12:14:48;;;;;;;30.43;14.03;;;6.80;99.90;;;;;;6194058;23;20013;-83
2022/01/22 12:17:29;;;;;;;29.13;13.37;;;6.70;99.90;;;;;;6168197;23;20087;-83
2022/01/22 12:20:17;;;;;;;27.77;13.07;;;6.70;99.90;;;;;;6192578;23;20047;-85
2022/01/22 12:22:43;;;;;;;22.57;12.10;;;6.70;99.90;;;;;;6218605;23;20044;-83
2022/01/22 12:25:12;;;;;;;22.57;10.73;;;6.70;99.90;;;;;;6167803;23;20447;-85
2022/01/22 12:27:47;;;;;;;26.07;11.07;;;6.70;99.90;;;;;;6217978;23;20013;-85
2022/01/22 12:30:15;;;;;;;24.90;10.77;;;6.80;99.90;;;;;;6166123;23;20005;-83
2022/01/22 12:32:44;;;;;;;18.27;9.90;;;6.70;99.90;;;;;;6190949;23;20016;-85
2022/01/22 12:35:15;;;;;;;19.17;10.40;;;6.80;99.90;;;;;;6192551;23;20096;-84
2022/01/22 12:37:45;;;;;;;19.90;9.73;;;6.80;99.90;;;;;;6191452;23;20009;-84
2022/01/22 12:40:12;;;;;;;21.07;10.00;;;6.70;99.90;;;;;;6191177;23;20032;-84
2022/01/22 12:42:52;;;;;;;20.00;9.57;;;6.80;99.90;;;;;;6216684;23;20068;-84
2022/01/22 12:45:21;;;;;;;20.87;9.80;;;6.80;99.90;;;;;;6190755;23;20001;-83
2022/01/22 12:47:49;;;;;;;18.35;9.55;;;6.80;99.90;;;;;;6190956;23;20344;-83
2022/01/22 12:50:15;;;;;;;23.70;10.77;;;6.80;99.90;;;;;;6215547;23;20088;-84
2022/01/22 12:52:46;;;;;;;26.37;11.63;;;6.80;99.90;;;;;;6215909;23;20013;-85
2022/01/22 12:55:50;;;;;;;25.23;11.63;;;6.70;99.90;;;;;;6216274;23;20009;-84
2022/01/22 12:58:20;;;;;;;27.53;14.40;;;6.70;99.90;;;;;;6215557;23;20356;-84
2022/01/22 13:00:46;;;;;;;31.10;14.10;;;6.70;99.90;;;;;;6190448;23;20068;-85
2022/01/22 13:03:12;;;;;;;33.90;14.23;;;6.60;99.90;;;;;;6215491;23;20056;-84
2022/01/22 13:05:45;;;;;;;28.27;14.53;;;6.70;99.90;;;;;;6190213;23;20005;-85
2022/01/22 13:08:30;;;;;;;31.17;14.50;;;6.70;99.90;;;;;;6213343;23;20079;-84
2022/01/22 13:11:24;;;;;;;33.07;15.63;;;6.70;99.90;;;;;;6209152;23;20013;-84
2022/01/22 13:13:50;;;;;;;42.47;18.67;;;6.80;99.90;;;;;;6190546;23;20340;-86
2022/01/22 13:16:17;;;;;;;49.17;21.80;;;6.80;99.90;;;;;;6215500;23;20013;-84
2022/01/22 13:18:59;;;;;;;47.60;19.27;;;6.80;99.90;;;;;;6214305;23;20001;-84
2022/01/22 13:21:32;;;;;;;45.27;20.17;;;6.80;99.90;;;;;;6214093;23;20013;-85
2022/01/22 13:24:10;;;;;;;44.97;19.73;;;6.80;99.90;;;;;;6215462;23;20001;-85
2022/01/22 13:27:11;;;;;;;36.67;17.90;;;6.80;99.90;;;;;;6190549;23;20032;-84
2022/01/22 13:29:40;;;;;;;36.60;17.40;;;6.80;99.90;;;;;;6142990;23;1102735;-85
2022/01/22 13:32:11;;;;;;;;;;;6.80;99.90;;;;;;6216691;23;20009;-85
2022/01/22 13:41:01;;;;;;;29.10;14.97;;;6.80;99.90;;;;;;6193482;23;20001;-85
2022/01/22 13:49:30;;;;;;;;;;;6.80;99.90;;;;;;6193702;23;20009;-84
2022/01/22 13:52:03;;;;;;;35.03;17.10;;;6.70;99.90;;;;;;6193656;23;19911;-84
2022/01/22 13:54:46;;;;;;;33.50;16.87;;;6.70;99.90;;;;;;6193208;23;20005;-83
2022/01/22 13:57:18;;;;;;;34.73;16.27;;;6.70;99.90;;;;;;6193500;23;20032;-83
2022/01/22 13:59:46;;;;;;;26.27;14.77;;;6.70;99.90;;;;;;6192682;23;20064;-86
2022/01/22 14:04:54;;;;;;;29.10;14.07;;;6.80;99.90;;;;;;6193943;23;20071;-83
2022/01/22 14:07:36;;;;;;;28.20;14.13;;;6.90;99.90;;;;;;6218429;23;20008;-83
2022/01/22 14:10:11;;;;;;;26.47;12.47;;;6.90;99.90;;;;;;6217985;23;20012;-84
2022/01/22 14:12:53;;;;;;;24.93;12.60;;;6.90;99.90;;;;;;6170078;23;20028;-83
2022/01/22 14:15:42;;;;;;;21.33;11.47;;;6.80;99.90;;;;;;6193676;23;20372;-83
2022/01/22 14:20:41;;;;;;;15.97;8.97;;;6.80;99.90;;;;;;6182405;23;20061;-82
2022/01/22 14:23:23;;;;;;;15.03;7.40;;;6.90;99.90;;;;;;6207781;23;20028;-83
2022/01/22 14:25:54;;;;;;;15.33;8.70;;;6.90;99.90;;;;;;6158094;23;20009;-83
2022/01/22 14:28:21;;;;;;;16.43;8.50;;;6.80;99.90;;;;;;6183808;23;20009;-83
2022/01/22 14:30:48;;;;;;;26.10;11.27;;;6.80;99.90;;;;;;6182841;23;20428;-85
2022/01/22 14:33:16;;;;;;;19.20;10.57;;;6.80;99.90;;;;;;6183280;23;20013;-85
2022/01/22 14:35:47;;;;;;;16.95;8.80;;;6.80;99.90;;;;;;6183083;23;20016;-84
2022/01/22 14:38:32;;;;;;;15.77;8.73;;;6.90;99.90;;;;;;6182513;23;20025;-83
2022/01/22 14:46:53;;;;;;;18.73;9.03;;;6.90;99.90;;;;;;6157870;23;20322;-85
2022/01/22 14:49:40;;;;;;;14.80;8.20;;;6.80;99.90;;;;;;6157321;23;20005;-82
2022/01/22 14:52:08;;;;;;;17.30;7.20;;;6.90;99.90;;;;;;6158056;23;20347;-85
2022/01/22 14:54:39;;;;;;;17.80;8.13;;;6.90;99.90;;;;;;6182821;23;20063;-83
2022/01/22 14:57:07;;;;;;;22.70;8.17;;;7.00;99.90;;;;;;6183041;23;20005;-83
2022/01/22 14:59:34;;;;;;;21.60;7.87;;;6.90;99.90;;;;;;6182427;23;20009;-82
2022/01/22 15:02:01;;;;;;;15.80;7.73;;;6.90;99.90;;;;;;6157950;23;20009;-84
2022/01/22 15:04:28;;;;;;;17.77;8.67;;;6.90;99.90;;;;;;6183266;23;20379;-84